Time;durP1;ratioP1;P1;durP2;ratioP2;P2;SDS_P1;SDS_P2;PMS_P1;PMS_P2;Temp;Humidity;BMP_temperature;BMP_pressure;BME280_temperature;BME280_humidity;BME280_pressure;Samples;Min_cycle;Max_cycle;Signal;HPM_P1;HPM_P2
2023/09/19 00:00:41;;;;;;;1.70;0.50;;;20.10;99.90;;;;;;5040460;28;20239;-75
2023/09/19 00:03:11;;;;;;;1.17;0.80;;;20.00;99.90;;;;;;5029196;28;20197;-75
2023/09/19 00:05:44;;;;;;;2.95;0.80;;;20.10;99.90;;;;;;5034919;28;20220;-76
2023/09/19 00:08:14;;;;;;;1.80;0.60;;;20.10;99.90;;;;;;5022275;28;20203;-75
2023/09/19 00:10:43;;;;;;;1.42;0.80;;;20.10;99.90;;;;;;5037853;28;20223;-75
2023/09/19 00:13:13;;;;;;;0.73;0.70;;;20.00;99.90;;;;;;5032891;28;20240;-74
2023/09/19 00:15:48;;;;;;;0.98;0.80;;;20.10;99.90;;;;;;5034267;28;20271;-75
2023/09/19 00:18:18;;;;;;;1.05;0.98;;;20.10;99.90;;;;;;5024060;28;20192;-75
2023/09/19 00:20:47;;;;;;;1.55;0.82;;;20.00;99.90;;;;;;5041916;28;20243;-76
2023/09/19 00:23:16;;;;;;;0.70;0.70;;;20.00;99.90;;;;;;5033027;28;20601;-75
2023/09/19 00:25:45;;;;;;;0.80;0.70;;;20.00;99.90;;;;;;5041310;28;20278;-75
2023/09/19 00:28:14;;;;;;;4.10;0.80;;;20.10;99.90;;;;;;5032994;28;20216;-75
2023/09/19 00:30:45;;;;;;;3.47;1.10;;;20.20;99.90;;;;;;5032871;28;20622;-75
2023/09/19 00:33:16;;;;;;;0.90;0.70;;;20.30;99.90;;;;;;5034613;28;20306;-74
2023/09/19 00:35:48;;;;;;;3.90;0.90;;;20.30;99.90;;;;;;5031128;28;20271;-74
2023/09/19 00:38:17;;;;;;;1.90;1.17;;;20.40;99.90;;;;;;5036092;28;20196;-73
2023/09/19 00:40:45;;;;;;;1.20;0.70;;;20.40;99.90;;;;;;5044077;28;20214;-73
2023/09/19 00:43:13;;;;;;;0.70;0.63;;;20.30;99.90;;;;;;5036257;28;20208;-73
2023/09/19 00:45:47;;;;;;;1.52;0.50;;;20.10;99.90;;;;;;5040094;28;20302;-73
2023/09/19 00:48:18;;;;;;;1.60;0.60;;;20.20;99.90;;;;;;5036039;28;20254;-73
2023/09/19 00:50:49;;;;;;;0.70;0.60;;;20.20;99.90;;;;;;5038237;28;20328;-74
2023/09/19 00:53:21;;;;;;;1.20;0.70;;;20.20;99.90;;;;;;5042778;28;20679;-74
2023/09/19 00:55:50;;;;;;;1.13;0.80;;;20.30;99.90;;;;;;5029520;28;20224;-72
2023/09/19 00:58:18;;;;;;;0.95;0.68;;;20.30;99.90;;;;;;5032939;28;20261;-72
2023/09/19 01:00:48;;;;;;;0.82;0.70;;;20.40;99.90;;;;;;5038695;28;20215;-72
2023/09/19 01:03:18;;;;;;;2.17;1.05;;;20.40;99.90;;;;;;5041952;28;20201;-72
2023/09/19 01:05:46;;;;;;;0.95;0.75;;;20.20;99.90;;;;;;5041471;28;20299;-72
2023/09/19 01:08:14;;;;;;;1.17;0.70;;;20.10;99.90;;;;;;5033273;28;20628;-72
2023/09/19 01:10:52;;;;;;;1.23;1.02;;;19.90;99.90;;;;;;5035519;28;20204;-71
2023/09/19 01:13:30;;;;;;;1.15;0.88;;;19.80;99.90;;;;;;5030477;28;20201;-72
2023/09/19 01:16:11;;;;;;;1.00;0.70;;;19.90;99.90;;;;;;5033653;28;20236;-72
2023/09/19 01:18:49;;;;;;;3.13;1.00;;;20.00;99.90;;;;;;5039425;28;20666;-72
2023/09/19 01:21:24;;;;;;;2.92;0.80;;;20.00;99.90;;;;;;5033138;28;20200;-72
2023/09/19 01:24:23;;;;;;;0.93;0.82;;;20.00;99.90;;;;;;5029272;28;20200;-72
2023/09/19 01:27:15;;;;;;;0.90;0.73;;;19.80;99.90;;;;;;5026296;28;20274;-71
2023/09/19 01:29:46;;;;;;;0.70;0.70;;;19.70;99.90;;;;;;5040643;28;20192;-71
2023/09/19 01:32:21;;;;;;;0.80;0.70;;;19.50;99.90;;;;;;5041297;28;20197;-71
2023/09/19 01:34:53;;;;;;;1.45;0.70;;;19.30;99.90;;;;;;5040221;28;20227;-70
2023/09/19 01:37:25;;;;;;;1.33;0.90;;;19.30;99.90;;;;;;5044553;28;20221;-70
2023/09/19 01:39:57;;;;;;;1.17;0.82;;;19.20;99.90;;;;;;5028630;28;20203;-70
2023/09/19 01:42:36;;;;;;;0.70;0.60;;;19.10;99.90;;;;;;5024915;28;20215;-71
2023/09/19 01:45:12;;;;;;;0.70;0.63;;;19.00;99.90;;;;;;5041420;28;20233;-71
2023/09/19 01:47:47;;;;;;;1.67;0.60;;;19.00;99.90;;;;;;5041775;28;20212;-71
2023/09/19 01:50:23;;;;;;;1.08;0.60;;;18.80;99.90;;;;;;5035863;28;20278;-71
2023/09/19 01:52:58;;;;;;;2.03;0.80;;;18.90;99.90;;;;;;5032244;28;20208;-71
2023/09/19 01:55:29;;;;;;;1.05;0.85;;;19.00;99.90;;;;;;5032904;28;20223;-70
2023/09/19 01:58:05;;;;;;;0.90;0.70;;;18.80;99.90;;;;;;5034439;28;20212;-71
2023/09/19 02:00:36;;;;;;;0.70;0.63;;;18.80;99.90;;;;;;5032223;28;20210;-71
2023/09/19 02:03:06;;;;;;;1.35;0.85;;;18.90;99.90;;;;;;5034124;28;20200;-72
2023/09/19 02:05:34;;;;;;;1.15;0.80;;;18.80;99.90;;;;;;5034415;28;20220;-71
2023/09/19 02:08:02;;;;;;;0.90;0.75;;;19.00;99.90;;;;;;5031363;28;20659;-71
2023/09/19 02:10:30;;;;;;;0.90;0.73;;;19.00;99.90;;;;;;5032629;28;20205;-70
2023/09/19 02:12:59;;;;;;;1.05;0.93;;;18.70;99.90;;;;;;5032294;28;20291;-70
2023/09/19 02:15:27;;;;;;;1.90;0.70;;;18.80;99.90;;;;;;5035896;28;20309;-73
2023/09/19 02:17:56;;;;;;;1.55;0.70;;;18.80;99.90;;;;;;5046325;28;20215;-73
2023/09/19 02:20:26;;;;;;;0.90;0.60;;;18.80;99.90;;;;;;5026440;28;20217;-72
2023/09/19 02:22:54;;;;;;;3.53;0.88;;;18.80;99.90;;;;;;5033861;28;20216;-72
2023/09/19 02:25:22;;;;;;;1.60;0.80;;;19.10;99.90;;;;;;5047226;28;20230;-71
2023/09/19 02:27:51;;;;;;;0.70;0.60;;;19.40;99.90;;;;;;5039786;28;20213;-71
2023/09/19 02:30:23;;;;;;;2.03;0.77;;;19.30;99.90;;;;;;5031600;28;20697;-71
2023/09/19 02:32:50;;;;;;;1.23;0.80;;;19.30;99.90;;;;;;5038411;28;20207;-71
2023/09/19 02:35:19;;;;;;;0.95;0.70;;;19.30;99.90;;;;;;5032111;28;20655;-72
2023/09/19 02:37:49;;;;;;;1.88;1.15;;;19.20;99.90;;;;;;5029176;28;20204;-72
2023/09/19 02:40:21;;;;;;;0.70;0.70;;;19.30;99.90;;;;;;5039446;28;20204;-73
2023/09/19 02:42:50;;;;;;;1.10;0.77;;;19.40;99.90;;;;;;5036672;28;20255;-73
2023/09/19 02:45:18;;;;;;;1.02;0.60;;;19.50;99.90;;;;;;5033284;28;20224;-73
2023/09/19 02:47:47;;;;;;;0.93;0.60;;;19.50;99.90;;;;;;5031330;28;20205;-75
2023/09/19 02:50:16;;;;;;;1.63;0.60;;;19.50;99.90;;;;;;5038144;28;20209;-72
2023/09/19 02:52:45;;;;;;;1.00;0.77;;;19.80;99.90;;;;;;5043388;28;20230;-72
2023/09/19 02:55:17;;;;;;;0.82;0.70;;;19.70;99.90;;;;;;5037300;28;20699;-74
2023/09/19 02:57:47;;;;;;;1.00;0.65;;;19.60;99.90;;;;;;5035361;28;20283;-74
2023/09/19 03:00:16;;;;;;;1.70;0.60;;;19.70;99.90;;;;;;5036953;28;20207;-74
2023/09/19 03:02:46;;;;;;;0.70;0.70;;;19.80;99.90;;;;;;5036499;28;20215;-74
2023/09/19 03:05:14;;;;;;;1.42;0.82;;;19.80;99.90;;;;;;5036648;28;20243;-73
2023/09/19 03:07:45;;;;;;;0.70;0.55;;;19.80;99.90;;;;;;5043244;28;20272;-74
2023/09/19 03:10:19;;;;;;;1.50;0.80;;;19.80;99.90;;;;;;5033768;28;20573;-74
2023/09/19 03:12:47;;;;;;;1.30;0.85;;;20.00;99.90;;;;;;5027192;28;20258;-73
2023/09/19 03:15:16;;;;;;;0.93;0.63;;;19.80;99.90;;;;;;5153564;22;20646;-67
2023/09/19 03:17:44;;;;;;;0.73;0.70;;;19.80;99.90;;;;;;5066130;28;20203;-65
2023/09/19 03:20:13;;;;;;;4.50;1.00;;;19.80;99.90;;;;;;5063641;28;20206;-66
2023/09/19 03:22:42;;;;;;;1.30;0.85;;;19.80;99.90;;;;;;5070360;28;20232;-66
2023/09/19 03:25:11;;;;;;;0.75;0.60;;;19.80;99.90;;;;;;5064967;28;20230;-66
2023/09/19 03:27:41;;;;;;;0.70;0.70;;;19.80;99.90;;;;;;5054601;28;20239;-66
2023/09/19 03:30:13;;;;;;;2.65;1.10;;;19.80;99.90;;;;;;5054488;28;20199;-66
2023/09/19 03:32:46;;;;;;;1.08;0.80;;;19.70;99.90;;;;;;5054816;28;20666;-67
2023/09/19 03:35:14;;;;;;;1.70;1.60;;;19.80;99.90;;;;;;5055772;28;20224;-66
2023/09/19 03:37:43;;;;;;;0.93;0.77;;;19.70;99.90;;;;;;5056756;28;20207;-66
2023/09/19 03:40:12;;;;;;;2.65;1.08;;;19.80;99.90;;;;;;5054097;28;20215;-66
2023/09/19 03:42:42;;;;;;;0.70;0.65;;;19.60;99.90;;;;;;5051701;28;20207;-66
2023/09/19 03:45:12;;;;;;;1.80;0.90;;;19.50;99.90;;;;;;5049952;28;20600;-66
2023/09/19 03:47:41;;;;;;;1.55;0.82;;;19.30;99.90;;;;;;5054137;28;20627;-66
2023/09/19 03:50:11;;;;;;;1.55;1.00;;;19.30;99.90;;;;;;5053718;28;20199;-66
2023/09/19 03:52:39;;;;;;;1.02;0.77;;;19.30;99.90;;;;;;5054060;28;20206;-66
2023/09/19 03:55:09;;;;;;;1.70;0.98;;;19.50;99.90;;;;;;5053856;28;20236;-65
2023/09/19 03:57:37;;;;;;;0.80;0.80;;;19.40;99.90;;;;;;5055504;28;20215;-66
2023/09/19 04:00:11;;;;;;;0.95;0.73;;;19.40;99.90;;;;;;5053926;28;20617;-66
2023/09/19 04:02:40;;;;;;;3.33;0.90;;;19.30;99.90;;;;;;5046290;28;20203;-65
2023/09/19 04:05:10;;;;;;;0.80;0.80;;;19.10;99.90;;;;;;5053390;28;20238;-71
2023/09/19 04:07:38;;;;;;;1.00;0.70;;;18.90;99.90;;;;;;5044033;28;20594;-65
2023/09/19 04:10:08;;;;;;;2.35;0.70;;;18.60;99.90;;;;;;5047383;28;20713;-67
2023/09/19 04:12:36;;;;;;;2.35;1.20;;;18.20;99.90;;;;;;5049098;28;20489;-64
2023/09/19 04:15:05;;;;;;;0.90;0.60;;;17.90;99.90;;;;;;5047284;28;20236;-65
2023/09/19 04:17:34;;;;;;;1.80;1.17;;;17.90;99.90;;;;;;5042772;28;20211;-67
2023/09/19 04:20:04;;;;;;;1.70;0.73;;;17.90;99.90;;;;;;5041907;28;20203;-66
2023/09/19 04:22:32;;;;;;;1.00;0.80;;;17.90;99.90;;;;;;5040824;28;20211;-66
2023/09/19 04:25:00;;;;;;;3.35;1.30;;;18.20;99.90;;;;;;5041591;28;20805;-65
2023/09/19 04:27:28;;;;;;;1.75;0.88;;;18.30;99.90;;;;;;5037151;28;20687;-66
2023/09/19 04:29:59;;;;;;;7.13;0.82;;;18.20;99.90;;;;;;5039418;28;20258;-68
2023/09/19 04:32:29;;;;;;;2.75;0.80;;;18.20;99.90;;;;;;5040494;28;20219;-68
2023/09/19 04:35:01;;;;;;;2.15;0.80;;;18.10;99.90;;;;;;5041086;28;20228;-66
2023/09/19 04:37:29;;;;;;;0.85;0.70;;;17.90;99.90;;;;;;5040304;28;20203;-65
2023/09/19 04:39:57;;;;;;;0.90;0.70;;;18.00;99.90;;;;;;5040901;28;20212;-65
2023/09/19 04:42:25;;;;;;;1.05;0.60;;;18.00;99.90;;;;;;5039210;28;20783;-64
2023/09/19 04:44:54;;;;;;;1.58;0.80;;;18.20;99.90;;;;;;5037722;28;20278;-66
2023/09/19 04:47:22;;;;;;;1.50;1.38;;;18.30;99.90;;;;;;5036887;28;20427;-65
2023/09/19 04:49:50;;;;;;;1.20;0.85;;;18.20;99.90;;;;;;5040455;28;20203;-67
2023/09/19 04:52:20;;;;;;;0.80;0.70;;;17.90;99.90;;;;;;5039670;28;20218;-65
2023/09/19 04:54:48;;;;;;;1.00;0.77;;;17.70;99.90;;;;;;5039250;28;20605;-67
2023/09/19 04:57:16;;;;;;;1.48;0.77;;;17.60;99.90;;;;;;5034114;28;20227;-65
2023/09/19 04:59:44;;;;;;;1.13;0.90;;;17.70;99.90;;;;;;5036557;28;20220;-65
2023/09/19 05:02:13;;;;;;;1.02;0.93;;;17.70;99.90;;;;;;5040614;28;20208;-64
2023/09/19 05:04:41;;;;;;;1.45;0.95;;;17.80;99.90;;;;;;5037761;28;20235;-65
2023/09/19 05:07:11;;;;;;;1.13;0.90;;;18.00;99.90;;;;;;5033424;28;20215;-66
2023/09/19 05:09:42;;;;;;;1.23;0.95;;;18.00;99.90;;;;;;5037539;28;20239;-68
2023/09/19 05:12:10;;;;;;;1.65;0.80;;;18.00;99.90;;;;;;5038830;28;20462;-66
2023/09/19 05:14:40;;;;;;;1.40;0.98;;;18.10;99.90;;;;;;5038541;28;20800;-65
2023/09/19 05:17:08;;;;;;;2.25;0.82;;;18.20;99.90;;;;;;5035831;28;20882;-67
2023/09/19 05:19:36;;;;;;;0.73;0.73;;;18.20;99.90;;;;;;5039409;28;20682;-66
2023/09/19 05:22:06;;;;;;;1.17;1.08;;;18.50;99.90;;;;;;5040260;28;20643;-67
2023/09/19 05:24:34;;;;;;;1.35;0.90;;;18.50;99.90;;;;;;5034996;28;20208;-67
2023/09/19 05:27:07;;;;;;;1.05;0.70;;;18.60;99.90;;;;;;5029263;28;20566;-68
2023/09/19 05:29:35;;;;;;;1.88;0.80;;;18.50;99.90;;;;;;5033073;28;20208;-64
2023/09/19 05:32:03;;;;;;;0.80;0.80;;;18.50;99.90;;;;;;5032869;28;20204;-69
2023/09/19 05:34:31;;;;;;;1.80;1.25;;;18.20;99.90;;;;;;5032380;28;20247;-68
2023/09/19 05:36:59;;;;;;;1.13;0.90;;;18.10;99.90;;;;;;5034284;28;20332;-68
2023/09/19 05:39:27;;;;;;;1.80;0.90;;;18.20;99.90;;;;;;5035445;28;20218;-64
2023/09/19 05:41:57;;;;;;;1.85;0.80;;;18.10;99.90;;;;;;5038658;28;20227;-64
2023/09/19 05:44:26;;;;;;;0.90;0.70;;;18.10;99.90;;;;;;5038892;28;20223;-64
2023/09/19 05:46:56;;;;;;;1.25;1.15;;;18.20;99.90;;;;;;5034627;28;20270;-68
2023/09/19 05:49:25;;;;;;;1.70;0.90;;;18.00;99.90;;;;;;5038186;28;20218;-67
2023/09/19 05:51:55;;;;;;;1.20;0.90;;;18.00;99.90;;;;;;5036817;28;20293;-68
2023/09/19 05:54:23;;;;;;;1.23;0.90;;;18.10;99.90;;;;;;5035249;28;20208;-67
2023/09/19 05:56:52;;;;;;;1.58;0.95;;;17.80;99.90;;;;;;5036811;28;20228;-65
2023/09/19 05:59:20;;;;;;;2.08;1.05;;;17.90;99.90;;;;;;5036736;28;20199;-65
2023/09/19 06:01:49;;;;;;;2.67;0.90;;;18.10;99.90;;;;;;5039052;28;20570;-69
2023/09/19 06:04:19;;;;;;;2.08;1.10;;;18.30;99.90;;;;;;5036468;28;20214;-67
2023/09/19 06:06:48;;;;;;;4.75;1.27;;;18.40;99.90;;;;;;5032762;28;20235;-66
2023/09/19 06:09:17;;;;;;;1.88;1.23;;;18.40;99.90;;;;;;5037344;28;20212;-67
2023/09/19 06:11:45;;;;;;;2.00;0.90;;;18.50;99.90;;;;;;5036242;28;20555;-66
2023/09/19 06:14:12;;;;;;;2.35;1.20;;;18.50;99.90;;;;;;5037303;28;20227;-65
2023/09/19 06:16:41;;;;;;;6.55;1.17;;;18.40;99.90;;;;;;5037997;28;20236;-67
2023/09/19 06:19:10;;;;;;;4.40;0.90;;;18.60;99.90;;;;;;5049001;28;20690;-65
2023/09/19 06:21:38;;;;;;;1.55;0.95;;;18.70;99.90;;;;;;5045679;28;20230;-64
2023/09/19 06:24:07;;;;;;;3.22;1.40;;;18.20;99.90;;;;;;5047508;28;20204;-64
2023/09/19 06:26:35;;;;;;;3.47;1.00;;;17.80;99.90;;;;;;5050467;28;20643;-64
2023/09/19 06:29:07;;;;;;;1.98;0.90;;;17.70;99.90;;;;;;5065582;28;20242;-64
2023/09/19 06:31:36;;;;;;;0.98;0.90;;;17.50;99.90;;;;;;5060853;28;20229;-63
2023/09/19 06:34:04;;;;;;;2.42;0.93;;;17.10;99.90;;;;;;5050570;28;20204;-64
2023/09/19 06:36:33;;;;;;;1.73;0.80;;;17.20;99.90;;;;;;5059216;28;20239;-63
2023/09/19 06:39:04;;;;;;;3.30;1.63;;;17.10;99.90;;;;;;5054229;28;20211;-64
2023/09/19 06:41:31;;;;;;;2.78;1.20;;;17.00;99.90;;;;;;5060797;28;20295;-64
2023/09/19 06:43:59;;;;;;;4.47;1.20;;;16.80;99.90;;;;;;5039248;28;20467;-64
2023/09/19 06:46:32;;;;;;;2.78;1.08;;;16.70;99.90;;;;;;5049932;28;20226;-63
2023/09/19 06:49:00;;;;;;;1.00;0.90;;;16.70;99.90;;;;;;5056323;28;20207;-63
2023/09/19 06:51:29;;;;;;;1.60;1.13;;;16.70;99.90;;;;;;5051749;28;20215;-63
2023/09/19 06:53:58;;;;;;;3.83;1.13;;;16.50;99.90;;;;;;5051135;28;20215;-64
2023/09/19 06:56:26;;;;;;;2.03;0.80;;;16.40;99.90;;;;;;5058049;28;20230;-64
2023/09/19 06:58:54;;;;;;;1.52;1.20;;;16.40;99.90;;;;;;5050017;28;20212;-64
2023/09/19 07:01:22;;;;;;;2.03;1.40;;;16.50;99.90;;;;;;5050798;28;20200;-64
2023/09/19 07:03:50;;;;;;;0.95;0.85;;;16.50;99.90;;;;;;5061998;28;20203;-63
2023/09/19 07:06:18;;;;;;;1.30;1.10;;;16.60;99.90;;;;;;5062420;28;20728;-64
2023/09/19 07:08:46;;;;;;;4.93;1.38;;;16.70;99.90;;;;;;5051406;28;20204;-64
2023/09/19 07:11:15;;;;;;;2.45;1.02;;;16.70;99.90;;;;;;5057563;28;20214;-64
2023/09/19 07:13:43;;;;;;;0.90;0.70;;;16.70;99.90;;;;;;5048051;28;20207;-63
2023/09/19 07:16:26;;;;;;;2.20;0.80;;;16.60;99.90;;;;;;5056816;28;20235;-64
2023/09/19 07:18:56;;;;;;;3.58;0.80;;;16.60;99.90;;;;;;5050776;28;20203;-63
2023/09/19 07:21:24;;;;;;;1.00;0.90;;;16.60;99.90;;;;;;5049239;28;20227;-64
2023/09/19 07:23:52;;;;;;;2.75;1.33;;;16.60;99.90;;;;;;5053745;28;20203;-63
2023/09/19 07:26:21;;;;;;;2.78;0.90;;;16.60;99.90;;;;;;5053278;28;20228;-64
2023/09/19 07:28:49;;;;;;;2.15;1.30;;;16.60;99.90;;;;;;5049730;28;20541;-64
2023/09/19 07:31:17;;;;;;;1.23;0.88;;;16.70;99.90;;;;;;5058955;28;20235;-63
2023/09/19 07:33:45;;;;;;;0.88;0.80;;;16.70;99.90;;;;;;5047900;28;20214;-63
2023/09/19 07:36:13;;;;;;;2.58;0.90;;;16.70;99.90;;;;;;5056630;28;20588;-64
2023/09/19 07:38:42;;;;;;;1.73;1.02;;;16.70;99.90;;;;;;5051073;28;20219;-64
2023/09/19 07:41:10;;;;;;;1.30;0.90;;;16.80;99.90;;;;;;5061128;28;20207;-64
2023/09/19 07:43:40;;;;;;;1.50;0.90;;;16.90;99.90;;;;;;5049245;28;20199;-63
2023/09/19 07:46:09;;;;;;;1.13;0.68;;;17.00;99.90;;;;;;5050175;28;20227;-64
2023/09/19 07:48:38;;;;;;;0.95;0.80;;;17.20;99.90;;;;;;5049772;28;20570;-64
2023/09/19 07:51:06;;;;;;;1.20;0.75;;;17.10;99.90;;;;;;5061792;28;20231;-64
2023/09/19 07:53:35;;;;;;;1.10;0.95;;;17.10;99.90;;;;;;5062395;28;20214;-64
2023/09/19 07:56:04;;;;;;;1.02;0.80;;;17.10;99.90;;;;;;5061389;28;20266;-64
2023/09/19 07:58:33;;;;;;;2.70;1.10;;;17.10;99.90;;;;;;5054109;28;20706;-63
2023/09/19 08:01:06;;;;;;;1.08;0.98;;;17.20;99.90;;;;;;5062386;28;20253;-64
2023/09/19 08:03:37;;;;;;;1.58;0.80;;;17.30;99.90;;;;;;5054174;28;20192;-64
2023/09/19 08:06:06;;;;;;;0.95;0.85;;;17.30;99.90;;;;;;5061788;28;20223;-64
2023/09/19 08:08:36;;;;;;;0.80;0.80;;;17.30;99.90;;;;;;5052815;28;20552;-63
2023/09/19 08:11:11;;;;;;;0.90;0.63;;;17.30;99.90;;;;;;5057036;28;20252;-63
2023/09/19 08:13:43;;;;;;;1.90;1.05;;;17.30;99.90;;;;;;5062736;28;20553;-63
2023/09/19 08:16:12;;;;;;;1.15;0.80;;;17.30;99.90;;;;;;5055459;28;20243;-64
2023/09/19 08:18:40;;;;;;;2.63;1.00;;;17.30;99.90;;;;;;5053672;28;20224;-63
2023/09/19 08:21:10;;;;;;;2.60;0.77;;;17.40;99.90;;;;;;5061780;28;20212;-63
2023/09/19 08:23:39;;;;;;;1.55;1.45;;;17.50;99.90;;;;;;5053224;28;20212;-63
2023/09/19 08:26:08;;;;;;;5.75;1.17;;;17.60;99.90;;;;;;5052812;28;20226;-64
2023/09/19 08:28:36;;;;;;;0.80;0.70;;;17.60;99.90;;;;;;5053026;28;20208;-63
2023/09/19 08:31:05;;;;;;;1.00;0.80;;;17.60;99.90;;;;;;5054019;28;20196;-64
2023/09/19 08:33:36;;;;;;;1.50;0.88;;;17.60;99.90;;;;;;5052867;28;20215;-64
2023/09/19 08:36:04;;;;;;;0.80;0.70;;;17.70;99.90;;;;;;5050198;28;20585;-63
2023/09/19 08:38:35;;;;;;;0.93;0.75;;;17.90;99.90;;;;;;5053812;28;20603;-63
2023/09/19 08:41:07;;;;;;;1.58;0.93;;;18.20;99.90;;;;;;5049334;28;20203;-64
2023/09/19 08:43:36;;;;;;;1.60;0.73;;;18.20;99.90;;;;;;5051712;28;20216;-63
2023/09/19 08:46:17;;;;;;;0.90;0.80;;;18.30;99.90;;;;;;5053398;28;20227;-64
2023/09/19 08:48:55;;;;;;;1.60;1.20;;;18.50;99.90;;;;;;5058942;28;20585;-64
2023/09/19 08:51:28;;;;;;;1.80;1.10;;;18.30;99.90;;;;;;5061934;28;20567;-64
2023/09/19 08:54:06;;;;;;;1.08;0.82;;;18.30;99.90;;;;;;5052007;28;20220;-64
2023/09/19 08:56:36;;;;;;;1.45;0.90;;;18.30;99.90;;;;;;5061803;28;20699;-64
2023/09/19 08:59:07;;;;;;;0.60;0.50;;;18.30;99.90;;;;;;5046855;28;20219;-63
2023/09/19 09:01:37;;;;;;;3.75;1.17;;;18.20;99.90;;;;;;5060434;28;20203;-63
2023/09/19 09:04:12;;;;;;;1.05;0.60;;;18.30;99.90;;;;;;5060759;28;20203;-63
2023/09/19 09:06:44;;;;;;;1.98;1.08;;;18.40;99.90;;;;;;5053472;28;20641;-63
2023/09/19 09:09:13;;;;;;;1.90;0.70;;;18.40;99.90;;;;;;5059520;28;20685;-63
2023/09/19 09:11:41;;;;;;;1.00;0.70;;;18.60;99.90;;;;;;5052145;28;20200;-63
2023/09/19 09:14:11;;;;;;;1.55;1.27;;;18.70;99.90;;;;;;5048456;28;20199;-63
2023/09/19 09:16:39;;;;;;;1.55;0.93;;;18.60;99.90;;;;;;5054281;23;20255;-63
2023/09/19 09:19:09;;;;;;;3.78;0.98;;;18.70;99.90;;;;;;5041063;28;20256;-64
2023/09/19 09:21:38;;;;;;;3.90;1.63;;;18.60;99.90;;;;;;5052059;28;20215;-64
2023/09/19 09:24:27;;;;;;;1.05;0.65;;;18.70;99.90;;;;;;5045021;28;20280;-63
2023/09/19 09:26:57;;;;;;;1.50;0.73;;;18.90;99.90;;;;;;5010064;28;20233;-63
2023/09/19 09:29:42;;;;;;;2.83;1.20;;;19.00;99.90;;;;;;5026484;28;20203;-64
2023/09/19 09:32:20;;;;;;;1.98;0.73;;;19.10;99.90;;;;;;5031855;28;20220;-64
2023/09/19 09:34:52;;;;;;;1.95;1.00;;;19.20;99.90;;;;;;5030433;28;20212;-63
2023/09/19 09:37:22;;;;;;;0.95;0.60;;;19.30;99.90;;;;;;5013020;28;20387;-64
2023/09/19 09:39:54;;;;;;;2.15;0.70;;;19.10;99.90;;;;;;5022398;28;20244;-63
2023/09/19 09:42:35;;;;;;;2.00;0.80;;;19.20;99.90;;;;;;5027868;28;20200;-63
2023/09/19 09:45:16;;;;;;;0.70;0.60;;;19.30;99.90;;;;;;5028847;28;20299;-63
2023/09/19 09:47:55;;;;;;;2.70;1.25;;;19.60;99.90;;;;;;5019858;28;20209;-63
2023/09/19 09:50:38;;;;;;;3.47;1.75;;;19.50;99.90;;;;;;5026809;28;20666;-63
2023/09/19 09:53:21;;;;;;;2.35;0.70;;;19.60;99.90;;;;;;5015858;28;20205;-64
2023/09/19 09:56:00;;;;;;;1.30;0.80;;;19.60;99.90;;;;;;5031468;28;20278;-64
2023/09/19 09:58:30;;;;;;;1.60;0.85;;;19.90;99.90;;;;;;5017943;28;20312;-64
2023/09/19 10:00:59;;;;;;;2.90;0.77;;;20.00;99.90;;;;;;5029000;28;20208;-64
2023/09/19 10:03:39;;;;;;;1.10;0.90;;;20.40;99.90;;;;;;5019316;28;20201;-64
2023/09/19 10:06:25;;;;;;;2.75;1.23;;;20.70;99.90;;;;;;5028375;28;20229;-64
2023/09/19 10:09:10;;;;;;;5.00;0.90;;;20.80;99.90;;;;;;5028361;28;20207;-65
2023/09/19 10:11:47;;;;;;;2.58;1.23;;;20.60;99.90;;;;;;5019309;28;20608;-64
2023/09/19 10:14:18;;;;;;;1.00;0.82;;;20.60;99.90;;;;;;5024672;28;20211;-64
2023/09/19 10:16:48;;;;;;;1.15;0.82;;;20.40;99.90;;;;;;5023342;28;20237;-64
2023/09/19 10:19:24;;;;;;;1.27;1.00;;;20.10;99.90;;;;;;5023580;28;20575;-64
2023/09/19 10:21:57;;;;;;;1.25;0.80;;;20.20;99.90;;;;;;5016880;28;20651;-63
2023/09/19 10:24:27;;;;;;;0.85;0.73;;;20.30;99.90;;;;;;5026381;28;20453;-64
2023/09/19 10:26:57;;;;;;;2.55;0.70;;;20.50;99.90;;;;;;5015261;28;20235;-64
2023/09/19 10:29:29;;;;;;;0.93;0.68;;;20.60;99.90;;;;;;5025248;28;20201;-64
2023/09/19 10:31:59;;;;;;;2.42;1.20;;;20.80;99.90;;;;;;5028529;28;20208;-65
2023/09/19 10:34:30;;;;;;;1.27;0.90;;;21.00;99.90;;;;;;5031597;28;20205;-64
2023/09/19 10:37:05;;;;;;;1.50;0.98;;;21.30;99.90;;;;;;5016610;28;20243;-64
2023/09/19 10:39:34;;;;;;;1.75;0.82;;;21.40;99.90;;;;;;5031567;28;20856;-65
2023/09/19 10:42:05;;;;;;;1.70;0.82;;;21.30;99.90;;;;;;5018335;28;20221;-64
2023/09/19 10:44:34;;;;;;;7.07;1.40;;;21.50;99.90;;;;;;5028955;28;20211;-64
2023/09/19 10:47:02;;;;;;;1.10;0.90;;;21.50;99.90;;;;;;5022492;28;20236;-64
2023/09/19 10:49:32;;;;;;;3.50;1.40;;;21.70;99.90;;;;;;5019243;28;20209;-64
2023/09/19 10:52:04;;;;;;;2.58;0.90;;;22.00;99.90;;;;;;5027867;28;20208;-65
2023/09/19 10:54:36;;;;;;;2.47;1.05;;;22.10;99.90;;;;;;5023025;28;20209;-64
2023/09/19 10:57:08;;;;;;;2.85;0.85;;;22.30;99.90;;;;;;5023580;28;20596;-64
2023/09/19 10:59:39;;;;;;;2.00;0.70;;;22.40;99.90;;;;;;5027738;28;20221;-64
2023/09/19 11:02:18;;;;;;;1.02;0.60;;;21.90;99.90;;;;;;5025871;28;20204;-64
2023/09/19 11:04:48;;;;;;;1.17;1.00;;;21.50;99.90;;;;;;5020511;28;20204;-64
2023/09/19 11:07:17;;;;;;;1.20;0.90;;;21.50;99.90;;;;;;5011448;28;20210;-64
2023/09/19 11:09:51;;;;;;;0.75;0.70;;;21.40;99.90;;;;;;5015028;28;20212;-64
2023/09/19 11:12:50;;;;;;;3.20;1.02;;;21.50;99.90;;;;;;5023504;28;20211;-64
2023/09/19 11:16:04;;;;;;;1.25;0.70;;;22.00;99.90;;;;;;5018151;28;20247;-64
2023/09/19 11:18:57;;;;;;;1.08;0.80;;;22.30;99.90;;;;;;4981646;28;20555;-64
2023/09/19 11:21:56;;;;;;;2.22;0.85;;;22.80;99.90;;;;;;5018598;28;20210;-64
2023/09/19 11:24:35;;;;;;;0.85;0.60;;;22.70;99.90;;;;;;5018798;28;20213;-64
2023/09/19 11:27:14;;;;;;;1.45;0.70;;;22.90;99.90;;;;;;5018461;28;20229;-64
2023/09/19 11:29:42;;;;;;;3.67;0.85;;;23.00;99.90;;;;;;5023776;28;20236;-64
2023/09/19 11:32:10;;;;;;;2.88;1.05;;;23.30;99.90;;;;;;5019093;28;20697;-66
2023/09/19 11:34:50;;;;;;;1.90;0.90;;;23.50;98.80;;;;;;5026593;28;20208;-64
2023/09/19 11:38:02;;;;;;;1.70;1.08;;;23.20;99.00;;;;;;5022087;28;20216;-64
2023/09/19 11:40:32;;;;;;;2.97;1.88;;;23.20;98.90;;;;;;5018402;28;20228;-64
2023/09/19 11:43:00;;;;;;;2.45;0.82;;;23.30;99.30;;;;;;5026673;28;20244;-64
2023/09/19 11:46:05;;;;;;;1.13;0.80;;;23.40;98.00;;;;;;5029932;28;20224;-64
2023/09/19 11:48:35;;;;;;;2.50;1.00;;;23.50;98.80;;;;;;4956100;28;20688;-64
2023/09/19 11:51:15;;;;;;;1.55;0.85;;;23.60;97.80;;;;;;5015355;28;20224;-64
2023/09/19 11:53:44;;;;;;;1.17;0.90;;;23.30;98.10;;;;;;5025731;28;20212;-64
2023/09/19 11:56:14;;;;;;;2.28;1.35;;;23.70;98.20;;;;;;5018502;28;20259;-64
2023/09/19 11:58:43;;;;;;;1.23;0.80;;;23.80;97.80;;;;;;5025779;28;20671;-64
2023/09/19 12:01:19;;;;;;;1.17;0.77;;;23.90;98.60;;;;;;5018790;28;20228;-64
2023/09/19 12:03:52;;;;;;;1.08;0.70;;;23.80;97.50;;;;;;5025731;28;21083;-64
2023/09/19 12:06:21;;;;;;;1.15;0.68;;;24.00;96.30;;;;;;5023943;28;20229;-64
2023/09/19 12:08:50;;;;;;;1.45;0.85;;;24.00;96.30;;;;;;5022877;28;20205;-64
2023/09/19 12:11:20;;;;;;;1.45;0.95;;;23.70;96.00;;;;;;5027741;28;20201;-64
2023/09/19 12:13:49;;;;;;;1.55;0.75;;;23.80;96.20;;;;;;5030238;28;20209;-64
2023/09/19 12:16:21;;;;;;;0.90;0.80;;;23.90;95.90;;;;;;5028756;28;20247;-64
2023/09/19 12:18:51;;;;;;;1.48;0.65;;;24.30;95.10;;;;;;5023010;28;20215;-64
2023/09/19 12:21:31;;;;;;;2.75;1.05;;;24.40;94.60;;;;;;5018660;28;20714;-64
2023/09/19 12:24:06;;;;;;;1.20;1.10;;;24.50;95.00;;;;;;5020799;28;20292;-64
2023/09/19 12:26:43;;;;;;;1.15;1.00;;;24.60;94.50;;;;;;5010037;28;20221;-64
2023/09/19 12:29:15;;;;;;;1.75;0.80;;;24.70;95.10;;;;;;5010496;28;20208;-64
2023/09/19 12:31:51;;;;;;;1.10;0.90;;;25.00;93.70;;;;;;5020825;28;20545;-64
2023/09/19 12:34:27;;;;;;;1.10;0.60;;;25.20;93.90;;;;;;5020030;28;20213;-64
2023/09/19 12:37:11;;;;;;;1.73;1.13;;;24.80;93.10;;;;;;5031536;28;20282;-64
2023/09/19 12:39:40;;;;;;;4.50;0.75;;;24.80;93.00;;;;;;5024789;28;20216;-64
2023/09/19 12:42:13;;;;;;;1.88;0.95;;;25.10;92.40;;;;;;5025522;28;20211;-64
2023/09/19 12:44:43;;;;;;;2.08;0.70;;;25.10;93.30;;;;;;5032815;28;20204;-64
2023/09/19 12:47:15;;;;;;;0.93;0.70;;;25.10;93.00;;;;;;5027951;28;20208;-64
2023/09/19 12:50:13;;;;;;;2.13;0.73;;;24.60;92.60;;;;;;5026370;28;20580;-64
2023/09/19 12:52:45;;;;;;;1.70;0.80;;;24.20;92.40;;;;;;5029749;28;20211;-66
2023/09/19 12:55:23;;;;;;;1.02;0.93;;;24.30;91.90;;;;;;5014768;28;20225;-64
2023/09/19 12:58:01;;;;;;;1.17;0.70;;;24.70;92.60;;;;;;5026959;28;20204;-65
2023/09/19 13:00:35;;;;;;;3.40;1.00;;;25.10;92.00;;;;;;5021116;28;20638;-65
2023/09/19 13:03:20;;;;;;;1.13;0.73;;;25.20;91.60;;;;;;5029596;28;20217;-64
2023/09/19 13:05:53;;;;;;;1.60;0.75;;;25.30;91.50;;;;;;5031883;28;20239;-64
2023/09/19 13:08:28;;;;;;;2.90;0.93;;;25.50;91.60;;;;;;5032777;28;20220;-64
2023/09/19 13:11:12;;;;;;;2.97;0.95;;;26.00;90.80;;;;;;5029594;28;20216;-65